Terminal Aerodrome Forecast
Issued by NWS Memphis, TN

Home | Current Version | Previous Version | Text Only | Print | Product List | Glossary On
Versions: 1 2 3 4 5 6 7 8 9 10 11 12 13 14 15 16
051
FTUS44 KMEG 262333
TAFMKL
TAF
KMKL 262333Z 2700/2724 20007KT P6SM SCT040
     FM270800 20007KT P6SM BKN020 OVC045
     FM271000 20008KT P6SM VCTS BKN007 OVC015CB
     FM271600 22010KT P6SM BKN020
     FM271800 23010G16KT P6SM BKN030
     FM272000 23010G16KT P6SM BKN040=

USA.gov is the U.S. government's official web portal to all federal, state and local government web resources and services.